Time;durP1;ratioP1;P1;durP2;ratioP2;P2;SDS_P1;SDS_P2;PMS_P1;PMS_P2;Temp;Humidity;BMP_temperature;BMP_pressure;BME280_temperature;BME280_humidity;BME280_pressure;Samples;Min_cycle;Max_cycle;Signal;HPM_P1;HPM_P2
2021/01/19 00:01:23;;;;;;;163.57;59.98;;;;;;;-13.70;73.53;100386.66;120616;1150;104358;-80
2021/01/19 00:03:50;;;;;;;165.83;62.03;;;;;;;-13.68;73.49;100388.50;120435;1151;104476;-80
2021/01/19 00:06:17;;;;;;;166.70;63.33;;;;;;;-13.68;73.30;100385.13;120439;1151;104291;-80
2021/01/19 00:08:44;;;;;;;164.25;63.95;;;;;;;-13.68;73.16;100380.97;120535;1151;104458;-80
2021/01/19 00:11:12;;;;;;;172.93;66.53;;;;;;;-13.70;73.44;100380.00;120528;1151;104406;-80
2021/01/19 00:13:39;;;;;;;164.90;65.08;;;;;;;-13.72;73.01;100370.65;120458;1151;104551;-80
2021/01/19 00:16:06;;;;;;;171.45;66.00;;;;;;;-13.74;72.88;100375.56;120476;1151;104379;-80
2021/01/19 00:18:33;;;;;;;174.87;67.43;;;;;;;-13.74;72.92;100378.08;120474;1150;104361;-81
2021/01/19 00:21:00;;;;;;;178.80;67.63;;;;;;;-13.75;73.34;100373.83;120581;1151;104377;-81
2021/01/19 00:23:29;;;;;;;176.50;64.70;;;;;;;-13.76;72.64;100379.61;120552;1151;103146;-80
2021/01/19 00:25:56;;;;;;;182.17;67.32;;;;;;;-13.75;72.64;100378.84;120497;1151;104455;-80
2021/01/19 00:28:23;;;;;;;171.93;67.70;;;;;;;-13.74;72.50;100378.08;120593;1151;104377;-81
2021/01/19 00:30:50;;;;;;;180.10;66.17;;;;;;;-13.76;72.79;100372.09;120501;1151;104309;-81
2021/01/19 00:33:18;;;;;;;176.70;67.27;;;;;;;-13.77;72.80;100368.72;120517;1151;103220;-81
2021/01/19 00:35:45;;;;;;;172.35;67.05;;;;;;;-13.78;73.04;100358.59;120520;1151;104936;-80
2021/01/19 00:38:12;;;;;;;177.03;66.47;;;;;;;-13.80;73.13;100360.13;120515;1151;104340;-80
2021/01/19 00:40:39;;;;;;;168.53;66.80;;;;;;;-13.82;72.64;100357.52;120521;1151;104442;-81
2021/01/19 00:43:06;;;;;;;179.47;67.77;;;;;;;-13.84;72.77;100354.02;120515;1152;104863;-81
2021/01/19 00:45:33;;;;;;;185.67;68.23;;;;;;;-13.85;72.86;100357.30;120518;1151;104357;-81
2021/01/19 00:48:00;;;;;;;182.00;67.77;;;;;;;-13.84;73.24;100358.16;120465;1151;104336;-81
2021/01/19 00:50:29;;;;;;;176.85;67.35;;;;;;;-13.81;73.25;100363.41;120469;1151;104379;-81
2021/01/19 00:52:56;;;;;;;176.23;65.03;;;;;;;-13.79;72.83;100359.36;120507;1151;104432;-81
2021/01/19 00:55:23;;;;;;;180.12;68.05;;;;;;;-13.80;73.43;100361.00;120500;1151;104487;-81
2021/01/19 00:57:51;;;;;;;190.60;69.80;;;;;;;-13.80;73.16;100365.14;120542;1151;104518;-81
2021/01/19 01:00:20;;;;;;;188.03;68.90;;;;;;;-13.79;73.14;100360.23;120509;1151;104323;-82
2021/01/19 01:02:48;;;;;;;190.40;69.53;;;;;;;-13.78;72.97;100348.56;120623;1151;104343;-81
2021/01/19 01:05:15;;;;;;;191.87;68.97;;;;;;;-13.77;72.60;100355.31;120783;1151;104342;-81
2021/01/19 01:07:42;;;;;;;183.80;70.23;;;;;;;-13.77;73.05;100356.19;120803;1150;103021;-81
2021/01/19 01:10:15;;;;;;;180.23;65.77;;;;;;;-13.79;73.21;100357.72;120507;1151;104332;-81
2021/01/19 01:12:44;;;;;;;174.77;67.83;;;;;;;-13.79;73.13;100342.68;120483;1151;104321;-79
2021/01/19 01:15:13;;;;;;;179.83;67.67;;;;;;;-13.78;72.87;100343.55;120498;1151;104314;-81
2021/01/19 01:17:41;;;;;;;176.85;67.80;;;;;;;-13.78;72.75;100338.53;120465;1151;104317;-80
2021/01/19 01:20:09;;;;;;;189.07;70.40;;;;;;;-13.77;72.45;100331.11;120547;1151;104846;-81
2021/01/19 01:22:42;;;;;;;194.87;69.77;;;;;;;-13.77;72.81;100326.09;120485;1151;103161;-80
2021/01/19 01:25:11;;;;;;;195.17;68.80;;;;;;;-13.75;73.28;100333.71;120494;1151;104423;-80
2021/01/19 01:27:40;;;;;;;182.70;67.95;;;;;;;-13.77;72.68;100330.23;120468;1151;103044;-80
2021/01/19 01:30:09;;;;;;;187.23;67.67;;;;;;;-13.79;72.51;100317.61;120468;1150;104972;-81
2021/01/19 01:32:49;;;;;;;174.03;68.07;;;;;;;-13.80;72.74;100320.89;120454;1151;104311;-81
2021/01/19 01:35:17;;;;;;;180.67;66.87;;;;;;;-13.80;72.81;100315.88;120438;1151;104556;-81
2021/01/19 01:37:55;;;;;;;185.23;69.27;;;;;;;-13.78;73.11;100318.48;120407;1151;104380;-81
2021/01/19 01:40:25;;;;;;;186.70;70.10;;;;;;;-13.78;73.23;100315.97;120514;1151;104895;-80
2021/01/19 01:42:58;;;;;;;191.53;70.50;;;;;;;-13.79;73.42;100311.73;120407;1150;104359;-80
2021/01/19 01:45:27;;;;;;;192.03;69.33;;;;;;;-13.80;72.99;100308.34;120496;1151;104512;-80
2021/01/19 01:47:58;;;;;;;187.37;70.07;;;;;;;-13.81;73.39;100313.27;120448;1151;105027;-80
2021/01/19 01:50:25;;;;;;;173.97;68.37;;;;;;;-13.81;73.61;100303.23;120440;1151;104465;-80
2021/01/19 01:52:55;;;;;;;177.87;67.27;;;;;;;-13.80;73.34;100300.83;120514;1151;104308;-80
2021/01/19 01:55:22;;;;;;;176.90;68.47;;;;;;;-13.79;73.66;100294.17;120485;1151;104348;-81
2021/01/19 01:57:50;;;;;;;179.07;67.60;;;;;;;-13.79;74.10;100287.52;120521;1151;104426;-81
2021/01/19 02:00:18;;;;;;;186.40;67.73;;;;;;;-13.78;73.88;100283.38;120465;1151;104390;-80
2021/01/19 02:02:55;;;;;;;181.37;65.80;;;;;;;-13.76;73.61;100286.84;120469;1151;104430;-80
2021/01/19 02:05:24;;;;;;;168.63;67.40;;;;;;;-13.74;73.96;100290.31;120443;1151;103136;-80
2021/01/19 02:08:05;;;;;;;172.27;67.67;;;;;;;-13.72;74.55;100272.86;120503;1151;104402;-81
2021/01/19 02:10:43;;;;;;;185.80;66.33;;;;;;;-13.68;74.74;100278.16;120436;1151;104370;-80
2021/01/19 02:13:29;;;;;;;164.90;64.73;;;;;;;-13.63;74.89;100271.83;120477;1151;104464;-80
2021/01/19 02:16:06;;;;;;;167.28;63.20;;;;;;;-13.58;74.81;100267.96;120464;1151;104506;-81
2021/01/19 02:19:21;;;;;;;179.57;65.13;;;;;;;-13.49;74.59;100267.66;120449;1151;103510;-80
2021/01/19 02:22:07;;;;;;;170.83;63.20;;;;;;;-13.40;74.70;100272.40;120407;1154;104350;-80
2021/01/19 02:24:45;;;;;;;191.17;65.93;;;;;;;-13.32;74.99;100277.11;120403;1153;104522;-80
2021/01/19 02:27:37;;;;;;;177.60;65.27;;;;;;;-13.25;75.01;100273.36;119894;1154;102919;-80
2021/01/19 02:30:05;;;;;;;162.40;61.77;;;;;;;-13.16;74.79;100273.88;120014;1154;104272;-80
2021/01/19 02:32:52;;;;;;;171.93;65.07;;;;;;;-13.12;74.70;100265.77;120071;1154;104366;-81
2021/01/19 02:35:25;;;;;;;171.57;63.50;;;;;;;-13.06;74.73;100258.63;119905;1154;104659;-81
2021/01/19 02:38:16;;;;;;;171.97;64.30;;;;;;;-13.00;74.25;100266.52;119880;1153;104442;-81
2021/01/19 02:40:46;;;;;;;171.67;65.77;;;;;;;-12.95;75.03;100256.75;120020;1154;103575;-81
2021/01/19 02:43:25;;;;;;;186.20;68.50;;;;;;;-12.91;75.10;100241.13;119825;1153;104554;-81
2021/01/19 02:45:54;;;;;;;171.93;65.63;;;;;;;-12.87;75.45;100246.42;119898;1154;104420;-81
2021/01/19 02:48:22;;;;;;;168.70;65.73;;;;;;;-12.85;74.97;100247.37;119919;1154;104461;-81
2021/01/19 02:50:51;;;;;;;172.60;67.17;;;;;;;-12.81;74.79;100245.91;120041;1154;104503;-81
2021/01/19 02:53:19;;;;;;;165.13;67.13;;;;;;;-12.81;74.76;100241.75;119939;1154;104617;-81
2021/01/19 02:55:47;;;;;;;166.57;64.43;;;;;;;-12.76;75.20;100242.02;119967;1154;102751;-81
2021/01/19 02:58:28;;;;;;;172.00;67.50;;;;;;;-12.71;74.98;100223.09;120480;1151;104391;-81
2021/01/19 03:01:04;;;;;;;172.90;64.93;;;;;;;-12.63;75.43;100226.91;120690;1151;104404;-80
2021/01/19 03:03:38;;;;;;;166.77;63.57;;;;;;;-12.57;74.90;100238.95;120850;1151;102231;-81
2021/01/19 03:06:20;;;;;;;169.20;64.03;;;;;;;-12.53;75.23;100225.83;120727;1151;104423;-81
2021/01/19 03:08:49;;;;;;;169.47;62.53;;;;;;;-12.48;74.90;100219.42;120500;1151;104391;-81
2021/01/19 03:11:18;;;;;;;159.53;62.57;;;;;;;-12.41;76.03;100218.98;120463;1151;104308;-81
2021/01/19 03:13:47;;;;;;;164.80;64.33;;;;;;;-12.36;75.68;100210.09;120534;1151;104343;-81
2021/01/19 03:16:19;;;;;;;174.80;63.83;;;;;;;-12.32;75.08;100217.02;120563;1151;104483;-81
2021/01/19 03:18:47;;;;;;;166.93;65.20;;;;;;;-12.27;75.89;100220.66;120501;1151;104470;-81
2021/01/19 03:21:15;;;;;;;169.57;65.20;;;;;;;-12.25;75.58;100211.55;120538;1151;104315;-81
2021/01/19 03:23:42;;;;;;;172.17;64.10;;;;;;;-12.21;75.53;100203.44;120497;1151;104346;-81
2021/01/19 03:26:10;;;;;;;163.97;65.13;;;;;;;-12.17;76.56;100206.12;120529;1152;104493;-81
2021/01/19 03:28:37;;;;;;;169.33;65.97;;;;;;;-12.14;76.19;100202.13;120492;1151;103054;-81
2021/01/19 03:31:06;;;;;;;175.03;65.37;;;;;;;-12.11;76.18;100201.42;120471;1151;104384;-81
2021/01/19 03:33:33;;;;;;;165.80;67.00;;;;;;;-12.08;75.41;100194.05;120480;1151;104356;-81
2021/01/19 03:36:00;;;;;;;163.87;66.23;;;;;;;-12.05;75.28;100201.77;120480;1151;104382;-81
2021/01/19 03:38:27;;;;;;;161.77;65.13;;;;;;;-12.02;75.55;100181.84;120468;1151;103087;-81
2021/01/19 03:40:55;;;;;;;176.03;70.80;;;;;;;-12.00;75.20;100181.15;120473;1150;104431;-81
2021/01/19 03:43:22;;;;;;;181.72;72.27;;;;;;;-11.98;75.03;100186.27;120498;1151;104989;-81
2021/01/19 03:45:49;;;;;;;182.80;73.65;;;;;;;-12.02;74.70;100179.34;120452;1151;104452;-81
2021/01/19 03:48:16;;;;;;;195.33;74.50;;;;;;;-12.07;75.45;100183.22;120565;1153;104425;-81
2021/01/19 03:50:43;;;;;;;191.57;76.10;;;;;;;-12.11;75.53;100176.28;120543;1151;104462;-81
2021/01/19 03:53:10;;;;;;;189.65;72.90;;;;;;;-12.13;74.73;100182.87;120461;1151;104383;-81
2021/01/19 03:55:38;;;;;;;189.67;73.17;;;;;;;-12.13;75.01;100175.34;120442;1151;103066;-81
2021/01/19 03:58:05;;;;;;;198.45;76.70;;;;;;;-12.15;75.62;100174.39;120518;1151;104311;-81
2021/01/19 04:00:32;;;;;;;191.73;76.60;;;;;;;-12.13;75.67;100167.80;120466;1151;104424;-81
2021/01/19 04:02:59;;;;;;;199.83;76.70;;;;;;;-12.10;74.80;100167.96;120434;1151;104450;-81
2021/01/19 04:05:26;;;;;;;201.00;78.20;;;;;;;-12.12;74.72;100161.98;120451;1151;104463;-81
2021/01/19 04:07:53;;;;;;;191.37;74.60;;;;;;;-12.11;75.39;100156.17;120423;1150;104451;-81
2021/01/19 04:10:20;;;;;;;198.40;77.90;;;;;;;-12.12;75.14;100159.47;120529;1151;104405;-81
2021/01/19 04:12:47;;;;;;;202.00;78.20;;;;;;;-12.12;75.75;100160.34;120519;1153;104384;-81
2021/01/19 04:15:15;;;;;;;204.33;79.50;;;;;;;-12.10;74.79;100165.45;120485;1151;103944;-81
2021/01/19 04:17:42;;;;;;;202.47;77.73;;;;;;;-12.09;74.92;100169.70;120511;1151;104342;-81
2021/01/19 04:20:10;;;;;;;204.43;78.10;;;;;;;-12.10;75.74;100153.74;120510;1151;104396;-81
2021/01/19 04:22:38;;;;;;;199.93;77.30;;;;;;;-12.06;75.88;100139.69;120476;1151;104347;-81
2021/01/19 04:25:06;;;;;;;215.77;82.00;;;;;;;-12.02;75.85;100144.13;120473;1151;105869;-81
2021/01/19 04:27:34;;;;;;;215.40;82.73;;;;;;;-11.97;75.86;100140.22;120518;1150;104426;-81
2021/01/19 04:30:07;;;;;;;211.63;83.60;;;;;;;-11.91;75.81;100146.44;120489;1151;104431;-81
2021/01/19 04:32:37;;;;;;;210.53;82.57;;;;;;;-11.87;75.60;100147.47;120494;1151;104493;-81
2021/01/19 04:35:05;;;;;;;210.07;85.20;;;;;;;-11.86;75.52;100141.66;120490;1151;102451;-81
2021/01/19 04:37:33;;;;;;;202.70;77.33;;;;;;;-11.83;75.04;100133.44;120492;1151;104467;-81
2021/01/19 04:40:03;;;;;;;211.23;81.37;;;;;;;-11.81;75.55;100129.35;120526;1151;104557;-81
2021/01/19 04:42:37;;;;;;;206.20;80.03;;;;;;;-11.77;75.61;100134.59;120412;1151;104360;-81
2021/01/19 04:45:07;;;;;;;214.50;80.13;;;;;;;-11.74;75.42;100136.41;120554;1150;104277;-81
2021/01/19 04:47:36;;;;;;;201.93;80.63;;;;;;;-11.72;75.49;100135.70;120525;1151;104298;-81
2021/01/19 04:50:15;;;;;;;206.13;79.77;;;;;;;-11.70;74.23;100139.16;120532;1150;104314;-80
2021/01/19 04:52:45;;;;;;;198.10;76.07;;;;;;;-11.72;74.97;100133.18;120464;1151;104338;-81
2021/01/19 04:55:19;;;;;;;201.25;80.05;;;;;;;-11.72;75.21;100133.18;120481;1151;104484;-81
2021/01/19 04:57:58;;;;;;;213.80;81.23;;;;;;;-11.70;74.38;100141.67;120773;1150;102439;-81
2021/01/19 05:00:32;;;;;;;202.90;79.07;;;;;;;-11.71;74.75;100139.94;120753;1151;104988;-81
2021/01/19 05:03:02;;;;;;;200.47;80.90;;;;;;;-11.74;75.02;100139.78;120619;1151;104458;-81
2021/01/19 05:05:35;;;;;;;203.70;78.97;;;;;;;-11.76;75.13;100131.29;120534;1151;104393;-81
2021/01/19 05:08:02;;;;;;;196.30;80.80;;;;;;;-11.79;74.40;100121.10;120507;1151;104185;-81
2021/01/19 05:10:34;;;;;;;200.13;81.30;;;;;;;-11.81;74.02;100122.67;120525;1150;104397;-82
2021/01/19 05:13:10;;;;;;;199.40;80.97;;;;;;;-11.83;75.27;100111.66;120451;1151;102477;-81
2021/01/19 05:15:48;;;;;;;207.00;80.87;;;;;;;-11.84;75.20;100117.48;120565;1151;104439;-81
2021/01/19 05:18:17;;;;;;;211.60;80.87;;;;;;;-11.84;74.43;100121.64;120488;1151;104477;-81
2021/01/19 05:20:46;;;;;;;203.80;82.10;;;;;;;-11.84;75.25;100132.57;120487;1153;104473;-81
2021/01/19 05:23:21;;;;;;;216.70;82.20;;;;;;;-11.85;75.23;100120.75;120571;1150;104404;-81
2021/01/19 05:25:59;;;;;;;213.70;82.60;;;;;;;-11.82;75.74;100115.05;120493;1149;104472;-81
2021/01/19 05:28:41;;;;;;;199.07;79.27;;;;;;;-11.81;75.07;100115.13;120501;1151;104426;-82
2021/01/19 05:31:14;;;;;;;208.70;81.93;;;;;;;-11.78;75.84;100111.91;120563;1151;104523;-81
2021/01/19 05:33:54;;;;;;;202.30;80.27;;;;;;;-11.76;75.71;100105.27;120497;1151;104316;-81
2021/01/19 05:36:41;;;;;;;205.60;79.20;;;;;;;-11.74;74.69;100104.56;120556;1151;104325;-81
2021/01/19 05:39:15;;;;;;;209.83;81.83;;;;;;;-11.72;75.80;100102.99;120550;1153;104329;-81
2021/01/19 05:41:45;;;;;;;221.80;84.30;;;;;;;-11.71;75.94;100109.75;120577;1151;104419;-81
2021/01/19 05:44:27;;;;;;;219.80;83.73;;;;;;;-11.68;76.45;100107.40;120511;1151;104516;-81
2021/01/19 05:47:04;;;;;;;219.13;82.53;;;;;;;-11.67;76.11;100106.64;120487;1151;104502;-81
2021/01/19 05:49:32;;;;;;;216.47;82.07;;;;;;;-11.69;76.17;100102.29;120532;1151;105589;-81
2021/01/19 05:52:06;;;;;;;211.80;81.43;;;;;;;-11.67;76.10;100101.61;120554;1151;104493;-81
2021/01/19 05:54:56;;;;;;;203.07;81.07;;;;;;;-11.65;75.93;100095.02;120523;1151;104322;-80
2021/01/19 05:57:24;;;;;;;213.97;82.40;;;;;;;-11.63;75.54;100106.02;120604;1153;104368;-81
2021/01/19 05:59:57;;;;;;;212.63;82.10;;;;;;;-11.62;76.65;100092.66;120556;1151;103197;-81
2021/01/19 06:02:41;;;;;;;223.23;83.17;;;;;;;-11.56;76.41;100103.81;120555;1151;104349;-81
2021/01/19 06:05:10;;;;;;;215.40;80.90;;;;;;;-11.50;76.51;100106.64;120601;1150;104422;-81
2021/01/19 06:07:39;;;;;;;207.47;82.20;;;;;;;-11.48;77.03;100110.14;120505;1151;101996;-81
2021/01/19 06:10:11;;;;;;;213.33;79.97;;;;;;;-11.48;76.56;100107.63;120532;1151;104445;-81
2021/01/19 06:12:39;;;;;;;212.33;83.30;;;;;;;-11.47;75.94;100111.87;120587;1151;104549;-81
2021/01/19 06:15:08;;;;;;;205.90;80.80;;;;;;;-11.44;75.97;100104.48;120519;1151;104481;-81
2021/01/19 06:17:36;;;;;;;211.87;82.33;;;;;;;-11.40;76.73;100124.84;120570;1151;104504;-81
2021/01/19 06:20:06;;;;;;;212.77;82.27;;;;;;;-11.37;76.79;100114.93;120618;1151;104324;-81
2021/01/19 06:22:34;;;;;;;217.80;85.17;;;;;;;-11.33;76.88;100098.33;120678;1151;104493;-82
2021/01/19 06:25:04;;;;;;;215.87;82.63;;;;;;;-11.31;77.03;100101.79;120584;1151;104199;-81
2021/01/19 06:27:34;;;;;;;214.47;84.17;;;;;;;-11.26;77.09;100100.41;120581;1150;104475;-81
2021/01/19 06:30:01;;;;;;;219.07;83.67;;;;;;;-11.21;76.40;100111.56;120647;1151;104333;-81
2021/01/19 06:32:30;;;;;;;196.05;78.37;;;;;;;-11.17;76.50;100105.03;120567;1151;104426;-81
2021/01/19 06:35:13;;;;;;;211.60;82.53;;;;;;;-11.14;76.57;100095.11;120565;1151;104372;-82
2021/01/19 06:37:42;;;;;;;215.47;83.67;;;;;;;-11.11;76.77;100096.16;120527;1151;104820;-81
2021/01/19 06:40:12;;;;;;;204.23;82.00;;;;;;;-11.11;76.19;100091.13;120531;1151;104815;-81
2021/01/19 06:42:39;;;;;;;212.17;82.17;;;;;;;-11.10;76.46;100077.74;120469;1151;104325;-81
2021/01/19 06:45:11;;;;;;;202.93;80.87;;;;;;;-11.11;77.69;100086.09;120536;1151;104378;-81
2021/01/19 06:47:49;;;;;;;209.73;83.80;;;;;;;-11.10;76.54;100077.74;120469;1151;104380;-81
2021/01/19 06:50:22;;;;;;;222.07;83.17;;;;;;;-11.09;77.26;100084.51;120468;1151;104413;-82
2021/01/19 06:53:08;;;;;;;211.23;82.27;;;;;;;-11.05;77.08;100086.39;120537;1151;104423;-82
2021/01/19 06:55:51;;;;;;;222.90;86.13;;;;;;;-10.99;76.99;100075.75;120741;1151;104896;-81
2021/01/19 06:58:56;;;;;;;205.60;82.90;;;;;;;-10.94;77.68;100081.05;120464;1151;104484;-81
2021/01/19 07:01:28;;;;;;;218.15;82.40;;;;;;;-10.92;77.74;100076.95;120479;1151;104371;-81
2021/01/19 07:04:25;;;;;;;209.03;80.73;;;;;;;-10.90;77.20;100077.87;120462;1151;104386;-82
2021/01/19 07:07:06;;;;;;;205.52;78.25;;;;;;;-10.91;76.82;100074.50;120541;1151;104404;-82
2021/01/19 07:09:48;;;;;;;202.87;80.10;;;;;;;-10.91;77.11;100083.71;120446;1151;104866;-82
2021/01/19 07:12:19;;;;;;;215.50;84.35;;;;;;;-10.93;78.32;100086.16;120497;1151;104332;-82
2021/01/19 07:14:58;;;;;;;205.07;83.40;;;;;;;-10.92;77.16;100080.33;120488;1151;104425;-81
2021/01/19 07:18:23;;;;;;;210.27;80.73;;;;;;;-10.91;77.08;100063.56;120506;1151;103081;-81
2021/01/19 07:21:04;;;;;;;208.97;82.93;;;;;;;-10.90;78.53;100065.28;119985;1154;103114;-81
2021/01/19 07:23:46;;;;;;;204.03;78.93;;;;;;;-10.88;78.09;100053.63;120484;1153;104249;-81
2021/01/19 07:26:17;;;;;;;203.93;77.97;;;;;;;-10.89;77.13;100067.87;120467;1154;105199;-81
2021/01/19 07:28:46;;;;;;;213.97;82.47;;;;;;;-10.85;77.94;100058.81;119909;1154;104615;-81
2021/01/19 07:31:20;;;;;;;223.87;88.60;;;;;;;-10.82;78.10;100058.96;119939;1154;104479;-81
2021/01/19 07:33:53;;;;;;;205.33;82.47;;;;;;;-10.79;77.21;100051.55;119890;1154;104525;-81
2021/01/19 07:36:22;;;;;;;222.05;85.65;;;;;;;-10.78;77.89;100055.80;119942;1154;104932;-82
2021/01/19 07:38:54;;;;;;;223.63;89.73;;;;;;;-10.77;77.47;100065.09;120009;1154;104362;-80
2021/01/19 07:41:29;;;;;;;212.80;84.90;;;;;;;-10.75;77.07;100061.02;119929;1154;104458;-80
2021/01/19 07:43:56;;;;;;;213.03;82.43;;;;;;;-10.73;77.91;100065.34;119953;1154;105350;-80
2021/01/19 07:46:37;;;;;;;201.35;82.60;;;;;;;-10.70;77.84;100064.62;119929;1154;104716;-80
2021/01/19 07:49:06;;;;;;;218.03;82.70;;;;;;;-10.65;77.06;100068.22;120001;1153;104498;-80
2021/01/19 07:51:38;;;;;;;197.13;78.90;;;;;;;-10.61;77.08;100062.53;119983;1154;104430;-80
2021/01/19 07:54:05;;;;;;;203.33;77.77;;;;;;;-10.56;77.12;100061.13;120021;1154;105525;-80
2021/01/19 07:56:33;;;;;;;213.90;84.20;;;;;;;-10.51;77.38;100042.03;119935;1154;104471;-80
2021/01/19 07:59:14;;;;;;;196.60;79.90;;;;;;;-10.42;78.69;100047.50;120409;1151;104460;-81
2021/01/19 08:01:55;;;;;;;205.33;81.50;;;;;;;-10.33;77.49;100046.23;120595;1151;104191;-81
2021/01/19 08:04:30;;;;;;;203.00;80.57;;;;;;;-10.28;77.57;100043.13;120642;1151;104447;-81
2021/01/19 08:07:09;;;;;;;205.60;80.73;;;;;;;-10.23;77.81;100033.24;120616;1151;104304;-81
2021/01/19 08:09:37;;;;;;;205.23;83.00;;;;;;;-10.14;78.04;100043.74;120566;1151;104440;-81
2021/01/19 08:12:11;;;;;;;195.27;81.47;;;;;;;-10.10;78.01;100053.17;120597;1153;104531;-81
2021/01/19 08:14:43;;;;;;;213.33;80.53;;;;;;;-10.05;78.23;100064.36;120593;1151;104331;-81
2021/01/19 08:17:12;;;;;;;208.87;82.53;;;;;;;-10.01;78.08;100063.70;120734;1150;104323;-81
2021/01/19 08:19:42;;;;;;;206.17;81.87;;;;;;;-9.96;77.91;100063.91;120635;1151;104473;-85
2021/01/19 08:22:11;;;;;;;215.77;83.93;;;;;;;-9.92;77.02;100059.07;120602;1149;104210;-81
2021/01/19 08:24:44;;;;;;;215.97;82.73;;;;;;;-9.88;76.77;100050.84;120558;1151;104839;-81
2021/01/19 08:27:11;;;;;;;210.70;83.13;;;;;;;-9.85;77.52;100043.44;120634;1150;104368;-81
2021/01/19 08:29:39;;;;;;;209.93;83.23;;;;;;;-9.84;76.63;100045.16;120588;1151;104356;-81
2021/01/19 08:32:09;;;;;;;211.27;82.73;;;;;;;-9.83;77.55;100044.37;120533;1151;104100;-81
2021/01/19 08:34:39;;;;;;;216.13;87.27;;;;;;;-9.81;77.30;100045.30;120528;1151;104290;-81
2021/01/19 08:37:15;;;;;;;215.60;86.97;;;;;;;-9.76;76.89;100041.31;120601;1151;104430;-80
2021/01/19 08:39:53;;;;;;;212.07;84.20;;;;;;;-9.73;76.81;100039.72;120622;1150;104271;-80
2021/01/19 08:42:36;;;;;;;206.27;84.50;;;;;;;-9.72;77.35;100032.22;120625;1151;104937;-81
2021/01/19 08:45:03;;;;;;;199.87;80.87;;;;;;;-9.69;76.81;100034.00;120674;1151;104457;-80
2021/01/19 08:47:33;;;;;;;208.03;88.37;;;;;;;-9.65;77.67;100031.71;120676;1151;104287;-80
2021/01/19 08:50:16;;;;;;;206.20;82.60;;;;;;;-9.61;76.43;100032.70;120645;1151;104357;-82
2021/01/19 08:52:43;;;;;;;216.57;84.47;;;;;;;-9.60;77.09;100042.00;120545;1151;104587;-81
2021/01/19 08:55:18;;;;;;;204.03;86.63;;;;;;;-9.58;77.20;100035.36;120587;1150;104313;-80
2021/01/19 08:57:49;;;;;;;225.45;88.25;;;;;;;-9.56;77.17;100036.30;120585;1150;103138;-80
2021/01/19 09:00:37;;;;;;;214.30;85.17;;;;;;;-9.50;77.23;100036.58;120579;1151;105017;-80
2021/01/19 09:03:13;;;;;;;203.53;83.33;;;;;;;-9.46;76.03;100035.91;120584;1151;104643;-80
2021/01/19 09:06:03;;;;;;;200.85;82.40;;;;;;;-9.41;76.98;100038.63;120639;1151;104382;-80
2021/01/19 09:08:32;;;;;;;212.17;86.95;;;;;;;-9.37;76.08;100033.77;120525;1151;102377;-80
2021/01/19 09:11:08;;;;;;;204.40;85.00;;;;;;;-9.30;76.85;100029.88;120574;1153;104396;-80
2021/01/19 09:14:07;;;;;;;213.67;85.43;;;;;;;-9.23;76.36;100021.75;120584;1151;101932;-80
2021/01/19 09:16:37;;;;;;;219.23;84.50;;;;;;;-9.15;76.51;100025.48;120564;1151;104362;-80
2021/01/19 09:19:07;;;;;;;217.87;89.17;;;;;;;-9.09;76.65;100024.88;120591;1151;104471;-81
2021/01/19 09:21:38;;;;;;;218.83;91.53;;;;;;;-9.03;76.17;100030.17;120574;1151;104469;-81
2021/01/19 09:24:14;;;;;;;216.87;90.90;;;;;;;-8.96;76.21;100027.13;120640;1151;104479;-82
2021/01/19 09:26:56;;;;;;;223.97;91.10;;;;;;;-8.92;75.49;100034.03;120620;1151;104342;-82
2021/01/19 09:29:27;;;;;;;227.70;91.90;;;;;;;-8.89;75.84;100031.62;120566;1151;103709;-81
2021/01/19 09:32:02;;;;;;;213.93;87.97;;;;;;;-8.89;75.59;100013.93;120539;1151;104601;-81
2021/01/19 09:34:31;;;;;;;215.80;89.97;;;;;;;-8.89;75.08;100022.38;120649;1150;104329;-81
2021/01/19 09:36:58;;;;;;;222.30;93.97;;;;;;;-8.87;76.05;100025.83;120613;1151;104449;-82
2021/01/19 09:39:31;;;;;;;224.50;93.43;;;;;;;-8.84;76.03;100023.42;120523;1150;104444;-81
2021/01/19 09:42:04;;;;;;;222.07;91.60;;;;;;;-8.79;75.56;100031.22;120570;1151;104365;-81
2021/01/19 09:44:33;;;;;;;228.87;93.60;;;;;;;-8.81;75.47;100029.40;120626;1151;104345;-81
2021/01/19 09:47:05;;;;;;;230.50;93.00;;;;;;;-8.82;74.67;100012.51;120563;1151;104409;-81
2021/01/19 09:49:35;;;;;;;220.43;92.43;;;;;;;-8.85;75.37;100000.61;120549;1151;103259;-81
2021/01/19 09:52:10;;;;;;;241.23;98.53;;;;;;;-8.84;75.94;100008.25;120612;1151;104484;-81
2021/01/19 09:54:38;;;;;;;236.50;97.47;;;;;;;-8.82;75.54;100010.84;120594;1150;104393;-82
2021/01/19 09:57:09;;;;;;;236.77;97.50;;;;;;;-8.79;76.01;100005.94;120547;1151;104764;-82
2021/01/19 09:59:40;;;;;;;225.73;94.47;;;;;;;-8.78;75.75;99996.69;120566;1151;102460;-81
2021/01/19 10:02:09;;;;;;;228.60;93.67;;;;;;;-8.76;75.88;99983.31;120497;1151;104529;-81
2021/01/19 10:04:36;;;;;;;220.90;92.43;;;;;;;-8.73;76.18;99983.43;120457;1150;104384;-81
2021/01/19 10:07:06;;;;;;;222.53;92.13;;;;;;;-8.71;76.24;99989.41;120492;1151;104381;-82
2021/01/19 10:09:35;;;;;;;230.50;93.87;;;;;;;-8.71;76.09;99974.23;120478;1151;104487;-82
2021/01/19 10:12:08;;;;;;;225.03;93.63;;;;;;;-8.67;76.88;99978.61;120519;1151;104352;-82
2021/01/19 10:14:41;;;;;;;220.73;93.47;;;;;;;-8.62;76.94;99984.70;120497;1151;104376;-82
2021/01/19 10:17:34;;;;;;;224.07;90.27;;;;;;;-8.60;76.82;99983.13;120498;1151;104457;-82
2021/01/19 10:20:09;;;;;;;224.53;95.90;;;;;;;-8.57;76.93;99967.21;120530;1151;104377;-82
2021/01/19 10:22:44;;;;;;;220.27;91.23;;;;;;;-8.57;76.80;99965.55;120508;1151;101961;-82
2021/01/19 10:25:24;;;;;;;228.30;94.90;;;;;;;-8.54;76.49;99960.60;120520;1151;104436;-81
2021/01/19 10:27:56;;;;;;;224.53;90.50;;;;;;;-8.48;76.45;99957.44;120538;1151;104368;-81
2021/01/19 10:30:27;;;;;;;226.87;91.53;;;;;;;-8.42;76.96;99956.84;120475;1150;104399;-82
2021/01/19 10:32:55;;;;;;;221.80;94.53;;;;;;;-8.35;76.19;99958.78;120536;1151;104197;-82
2021/01/19 10:35:32;;;;;;;233.00;97.53;;;;;;;-8.27;76.95;99959.89;120493;1151;105333;-81
2021/01/19 10:38:02;;;;;;;234.77;97.30;;;;;;;-8.18;76.76;99946.75;120547;1151;104494;-82
2021/01/19 10:40:30;;;;;;;233.83;98.73;;;;;;;-8.09;77.27;99947.94;120526;1151;104516;-81
2021/01/19 10:43:01;;;;;;;230.30;96.67;;;;;;;-8.05;77.02;99947.27;120483;1150;104494;-81
2021/01/19 10:45:30;;;;;;;223.93;94.83;;;;;;;-8.02;76.64;99949.05;120503;1150;104429;-81
2021/01/19 10:48:01;;;;;;;221.73;95.53;;;;;;;-7.98;76.07;99950.88;120517;1151;104308;-81
2021/01/19 10:50:31;;;;;;;234.80;97.47;;;;;;;-7.96;76.33;99944.20;120497;1151;104385;-81
2021/01/19 10:53:00;;;;;;;223.77;95.80;;;;;;;-7.97;76.25;99940.80;120528;1151;104566;-82
2021/01/19 10:55:35;;;;;;;226.17;96.50;;;;;;;-7.95;76.23;99936.66;120458;1151;104487;-82
2021/01/19 10:58:04;;;;;;;230.47;96.13;;;;;;;-7.95;76.54;99929.06;120514;1151;102483;-83
2021/01/19 11:00:33;;;;;;;229.50;99.30;;;;;;;-7.93;76.49;99931.65;120549;1151;101843;-82
2021/01/19 11:03:02;;;;;;;222.73;96.67;;;;;;;-7.93;76.18;99924.92;120604;1151;104420;-81
2021/01/19 11:05:30;;;;;;;227.37;96.97;;;;;;;-7.91;76.04;99927.50;120518;1151;104475;-81